createdAt,value
2023-05-05T00:01:41.267Z,13.20
2023-05-05T00:05:04.030Z,13.20
2023-05-05T00:08:27.261Z,13.10
2023-05-05T00:11:49.672Z,13.10
2023-05-05T00:15:12.684Z,13.00
2023-05-05T00:18:35.653Z,12.90
2023-05-05T00:22:00.753Z,12.80
2023-05-05T00:25:23.385Z,12.80
2023-05-05T00:28:46.065Z,12.70
2023-05-05T00:32:09.292Z,12.70
2023-05-05T00:35:32.144Z,12.70
2023-05-05T00:38:54.558Z,12.60
2023-05-05T00:42:17.244Z,12.60
2023-05-05T00:45:43.018Z,12.50
2023-05-05T00:49:05.536Z,12.50
2023-05-05T00:52:30.205Z,12.50
2023-05-05T00:55:53.357Z,12.40
2023-05-05T00:59:15.445Z,12.40
2023-05-05T01:02:42.175Z,12.40
2023-05-05T01:06:23.469Z,12.40
2023-05-05T01:09:45.631Z,12.30
2023-05-05T01:13:29.670Z,12.30
2023-05-05T01:17:10.926Z,12.40
2023-05-05T01:20:46.141Z,12.40
2023-05-05T01:24:39.868Z,12.40
2023-05-05T01:28:21.283Z,12.40
2023-05-05T01:32:01.597Z,12.40
2023-05-05T01:35:32.198Z,12.40
2023-05-05T01:38:59.507Z,12.40
2023-05-05T01:42:24.275Z,12.40
2023-05-05T01:45:47.743Z,12.40
2023-05-05T01:49:11.822Z,12.40
2023-05-05T01:52:38.577Z,12.40
2023-05-05T01:56:06.918Z,12.40
2023-05-05T01:59:29.959Z,12.40
2023-05-05T02:02:54.079Z,12.40
2023-05-05T02:06:18.527Z,12.40
2023-05-05T02:09:43.550Z,12.40
2023-05-05T02:13:06.834Z,12.30
2023-05-05T02:16:31.217Z,12.20
2023-05-05T02:19:54.755Z,12.20
2023-05-05T02:23:17.018Z,12.00
2023-05-05T02:26:40.666Z,11.90
2023-05-05T02:30:08.406Z,11.80
2023-05-05T02:33:33.670Z,11.80
2023-05-05T02:37:00.422Z,11.70
2023-05-05T02:40:28.763Z,11.60
2023-05-05T02:43:52.315Z,11.60
2023-05-05T02:47:15.781Z,11.60
2023-05-05T02:50:37.814Z,11.50
2023-05-05T02:54:09.175Z,11.50
2023-05-05T02:57:52.652Z,11.40
2023-05-05T03:01:35.173Z,11.40
2023-05-05T03:05:17.470Z,11.40
2023-05-05T03:09:13.305Z,11.30
2023-05-05T03:12:45.823Z,11.30
2023-05-05T03:16:18.614Z,11.20
2023-05-05T03:19:43.267Z,11.20
2023-05-05T03:23:07.035Z,11.10
2023-05-05T03:26:33.943Z,11.20
2023-05-05T03:29:56.549Z,11.20
2023-05-05T03:33:20.474Z,11.10
2023-05-05T03:36:43.002Z,11.10
2023-05-05T03:40:14.235Z,11.10
2023-05-05T03:43:39.328Z,11.10
2023-05-05T03:47:01.866Z,11.10
2023-05-05T03:50:26.169Z,11.20
2023-05-05T03:53:49.061Z,11.10
2023-05-05T03:57:11.398Z,11.10
2023-05-05T04:00:33.445Z,11.10
2023-05-05T04:04:03.379Z,11.00
2023-05-05T04:12:56.478Z,11.10
2023-05-05T04:16:35.688Z,11.10
2023-05-05T04:19:59.527Z,11.10
2023-05-05T04:23:24.795Z,11.20
2023-05-05T04:26:46.884Z,11.30
2023-05-05T04:30:09.737Z,11.40
2023-05-05T04:33:34.453Z,11.50
2023-05-05T04:36:56.669Z,11.60
2023-05-05T04:40:18.952Z,11.80
2023-05-05T04:43:41.496Z,11.90
2023-05-05T04:47:04.194Z,12.10
2023-05-05T04:50:27.020Z,12.10
2023-05-05T04:53:49.262Z,12.20
2023-05-05T04:57:11.162Z,12.40
2023-05-05T05:00:33.571Z,12.60
2023-05-05T05:03:55.730Z,13.10
2023-05-05T05:07:20.209Z,14.00
2023-05-05T05:10:42.382Z,15.00
2023-05-05T05:14:04.778Z,16.00
2023-05-05T05:17:27.049Z,16.70
2023-05-05T05:20:49.963Z,17.50
2023-05-05T05:24:12.146Z,18.40
2023-05-05T05:27:34.332Z,20.10
2023-05-05T05:30:56.313Z,21.30
2023-05-05T05:34:18.840Z,22.30
2023-05-05T05:37:41.486Z,22.60
2023-05-05T05:41:09.967Z,22.60
2023-05-05T05:44:33.255Z,23.30
2023-05-05T05:47:56.401Z,24.30
2023-05-05T05:51:19.047Z,25.00
2023-05-05T05:54:42.852Z,25.40
2023-05-05T05:58:07.673Z,25.80
2023-05-05T06:01:30.070Z,26.10
2023-05-05T06:04:53.761Z,25.60
2023-05-05T06:08:35.555Z,25.70
2023-05-05T06:11:59.027Z,25.80
2023-05-05T06:15:21.047Z,26.10
2023-05-05T06:18:43.516Z,26.50
2023-05-05T06:22:06.124Z,27.40
2023-05-05T06:25:28.741Z,27.60
2023-05-05T06:28:50.812Z,27.20
2023-05-05T06:32:14.077Z,27.40
2023-05-05T06:35:36.013Z,27.90
2023-05-05T06:38:58.109Z,28.30
2023-05-05T06:42:20.096Z,28.60
2023-05-05T06:45:43.744Z,29.00
2023-05-05T06:49:06.207Z,29.80
2023-05-05T06:52:28.217Z,29.90
2023-05-05T06:55:50.183Z,30.10
2023-05-05T06:59:12.220Z,30.50
2023-05-05T07:02:34.459Z,29.90
2023-05-05T07:05:56.598Z,30.80
2023-05-05T07:09:19.162Z,30.70
2023-05-05T07:12:41.962Z,31.50
2023-05-05T07:16:04.135Z,31.40
2023-05-05T07:19:26.319Z,29.80
2023-05-05T07:22:48.325Z,30.40
2023-05-05T07:26:10.544Z,31.20
2023-05-05T07:29:32.584Z,31.50
2023-05-05T07:32:55.376Z,31.50
2023-05-05T07:36:20.789Z,31.70
2023-05-05T07:39:42.691Z,32.10
2023-05-05T07:43:05.077Z,31.60
2023-05-05T07:46:27.436Z,31.60
2023-05-05T07:49:49.394Z,30.80
2023-05-05T07:53:14.845Z,31.80
2023-05-05T07:56:37.403Z,31.80
2023-05-05T07:59:59.322Z,32.20
2023-05-05T08:03:24.524Z,32.20
2023-05-05T08:06:47.129Z,32.10
2023-05-05T08:10:11.291Z,32.80
2023-05-05T08:13:33.698Z,32.90
2023-05-05T08:16:55.627Z,32.70
2023-05-05T08:20:19.613Z,33.20
2023-05-05T08:23:41.538Z,31.80
2023-05-05T08:27:03.683Z,32.40
2023-05-05T08:30:25.701Z,32.50
2023-05-05T08:33:47.867Z,33.40
2023-05-05T08:37:09.822Z,33.40
2023-05-05T08:40:37.030Z,33.40
2023-05-05T08:43:59.040Z,33.10
2023-05-05T08:47:21.365Z,33.20
2023-05-05T08:50:48.246Z,33.80
2023-05-05T08:54:17.970Z,33.40
2023-05-05T08:58:06.233Z,33.80
2023-05-05T09:01:28.689Z,33.30
2023-05-05T09:04:52.478Z,33.60
2023-05-05T09:08:14.725Z,33.10
2023-05-05T09:11:40.792Z,33.00
2023-05-05T09:15:05.765Z,33.20
2023-05-05T09:18:27.868Z,33.30
2023-05-05T09:21:49.950Z,32.10
2023-05-05T09:25:13.647Z,31.80
2023-05-05T09:28:35.794Z,32.40
2023-05-05T09:32:11.227Z,31.40
2023-05-05T09:35:53.254Z,30.70
2023-05-05T09:39:19.709Z,31.40
2023-05-05T09:42:42.275Z,31.30
2023-05-05T09:46:08.320Z,31.10
2023-05-05T09:49:30.896Z,31.20
2023-05-05T09:53:02.642Z,31.60
2023-05-05T09:56:38.503Z,31.70
2023-05-05T10:00:54.794Z,32.10
2023-05-05T10:04:30.236Z,32.90
2023-05-05T10:07:52.482Z,32.60
2023-05-05T10:11:14.747Z,32.30
2023-05-05T10:14:36.791Z,30.90
2023-05-05T10:18:07.804Z,29.90
2023-05-05T10:21:36.786Z,29.80
2023-05-05T10:25:22.494Z,29.60
2023-05-05T10:28:50.368Z,29.50
2023-05-05T10:32:51.502Z,29.50
2023-05-05T10:36:06.684Z,30.10
2023-05-05T10:39:29.413Z,30.60
2023-05-05T10:42:54.139Z,30.90
2023-05-05T10:46:16.438Z,30.60
2023-05-05T10:50:23.337Z,29.90
2023-05-05T10:53:59.336Z,29.80
2023-05-05T10:57:27.964Z,29.00
2023-05-05T11:00:56.269Z,29.10
2023-05-05T11:04:23.608Z,29.00
2023-05-05T11:07:46.804Z,28.60
2023-05-05T11:11:10.595Z,29.00
2023-05-05T11:14:32.587Z,29.20
2023-05-05T11:17:59.149Z,29.60
2023-05-05T11:21:21.529Z,29.90
2023-05-05T11:24:43.565Z,29.80
2023-05-05T11:28:11.365Z,29.40
2023-05-05T11:31:33.604Z,29.00
2023-05-05T11:34:55.848Z,29.10
2023-05-05T11:38:20.904Z,28.20
2023-05-05T11:42:17.271Z,28.30
2023-05-05T11:45:39.580Z,28.10
2023-05-05T11:49:01.853Z,27.90
2023-05-05T11:52:25.705Z,27.00
2023-05-05T11:55:47.637Z,27.40
2023-05-05T11:59:10.698Z,27.50
2023-05-05T12:02:32.882Z,28.00
2023-05-05T12:05:55.629Z,27.50
2023-05-05T12:09:22.797Z,27.90
2023-05-05T12:12:44.842Z,28.20
2023-05-05T12:16:15.857Z,28.50
2023-05-05T12:19:45.674Z,28.20
2023-05-05T12:23:08.546Z,28.30
2023-05-05T12:26:32.119Z,28.40
2023-05-05T12:29:55.460Z,28.20
2023-05-05T12:33:17.514Z,28.30
2023-05-05T12:36:40.093Z,28.50
2023-05-05T12:40:02.155Z,28.60
2023-05-05T12:43:26.654Z,28.60
2023-05-05T12:46:49.665Z,28.40
2023-05-05T12:50:11.938Z,28.30
2023-05-05T12:53:34.133Z,27.90
2023-05-05T12:56:57.302Z,27.10
2023-05-05T13:00:19.536Z,27.30
2023-05-05T13:03:41.817Z,27.40
2023-05-05T13:07:14.891Z,26.60
2023-05-05T13:10:37.278Z,26.60
2023-05-05T13:13:59.370Z,26.60
2023-05-05T13:17:21.350Z,26.80
2023-05-05T13:20:43.455Z,27.40
2023-05-05T13:24:21.197Z,27.70
2023-05-05T13:27:47.780Z,27.20
2023-05-05T13:31:09.850Z,27.70
2023-05-05T13:34:31.971Z,27.70
2023-05-05T13:37:54.039Z,28.00
2023-05-05T13:41:15.974Z,27.20
2023-05-05T13:44:37.947Z,27.20
2023-05-05T13:48:00.261Z,26.30
2023-05-05T13:51:22.171Z,26.30
2023-05-05T13:54:44.137Z,27.00
2023-05-05T13:58:06.308Z,27.20
2023-05-05T14:01:28.524Z,27.20
2023-05-05T14:04:50.612Z,27.40
2023-05-05T14:08:13.669Z,27.20
2023-05-05T14:11:35.902Z,27.40
2023-05-05T14:14:58.732Z,27.10
2023-05-05T14:18:20.976Z,26.90
2023-05-05T14:21:43.129Z,26.80
2023-05-05T14:25:05.833Z,27.20
2023-05-05T14:28:28.023Z,27.00
2023-05-05T14:31:50.054Z,27.00
2023-05-05T14:35:12.152Z,27.40
2023-05-05T14:38:34.426Z,27.80
2023-05-05T14:41:56.579Z,27.90
2023-05-05T14:45:18.589Z,27.80
2023-05-05T14:48:40.812Z,27.50
2023-05-05T14:52:02.828Z,27.10
2023-05-05T14:55:25.196Z,26.90
2023-05-05T14:58:48.280Z,27.10
2023-05-05T15:02:11.393Z,27.40
2023-05-05T15:05:33.516Z,27.30
2023-05-05T15:08:55.529Z,27.00
2023-05-05T15:12:17.449Z,27.00
2023-05-05T15:15:39.514Z,27.30
2023-05-05T15:19:01.603Z,27.40
2023-05-05T15:22:23.582Z,27.20
2023-05-05T15:25:45.844Z,26.90
2023-05-05T15:29:07.866Z,27.00
2023-05-05T15:32:30.437Z,26.70
2023-05-05T15:35:52.505Z,27.00
2023-05-05T15:39:14.525Z,27.10
2023-05-05T15:42:36.601Z,26.90
2023-05-05T15:45:58.589Z,26.70
2023-05-05T15:49:20.639Z,26.70
2023-05-05T15:52:42.861Z,26.70
2023-05-05T15:56:05.021Z,26.60
2023-05-05T15:59:27.093Z,26.00
2023-05-05T16:02:49.577Z,26.00
2023-05-05T16:06:12.669Z,25.90
2023-05-05T16:09:34.671Z,25.90
2023-05-05T16:12:57.560Z,25.90
2023-05-05T16:16:19.700Z,26.00
2023-05-05T16:19:41.716Z,26.40
2023-05-05T16:23:03.701Z,26.70
2023-05-05T16:26:25.731Z,26.90
2023-05-05T16:29:47.730Z,26.90
2023-05-05T16:33:09.965Z,26.80
2023-05-05T16:36:32.038Z,26.80
2023-05-05T16:39:54.043Z,26.50
2023-05-05T16:43:16.050Z,26.60
2023-05-05T16:46:40.073Z,26.90
2023-05-05T16:50:02.075Z,26.80
2023-05-05T16:53:24.452Z,26.50
2023-05-05T16:56:46.456Z,26.40
2023-05-05T17:00:12.319Z,26.30
2023-05-05T17:03:34.617Z,26.10
2023-05-05T17:06:57.586Z,26.10
2023-05-05T17:10:19.556Z,26.10
2023-05-05T17:13:41.469Z,26.10
2023-05-05T17:17:03.499Z,26.20
2023-05-05T17:20:27.167Z,26.20
2023-05-05T17:23:56.589Z,25.70
2023-05-05T17:27:19.291Z,25.10
2023-05-05T17:30:41.508Z,24.70
2023-05-05T17:34:03.626Z,24.10
2023-05-05T17:37:25.628Z,23.80
2023-05-05T17:40:47.636Z,23.50
2023-05-05T17:44:09.611Z,23.10
2023-05-05T17:47:31.556Z,22.90
2023-05-05T17:50:53.685Z,22.60
2023-05-05T17:54:16.221Z,22.50
2023-05-05T17:57:38.485Z,22.30
2023-05-05T18:01:00.651Z,22.10
2023-05-05T18:04:22.746Z,21.90
2023-05-05T18:07:44.689Z,21.70
2023-05-05T18:11:06.806Z,21.50
2023-05-05T18:14:28.775Z,21.40
2023-05-05T18:17:50.794Z,21.30
2023-05-05T18:21:12.760Z,21.10
2023-05-05T18:24:34.930Z,20.90
2023-05-05T18:27:56.866Z,20.80
2023-05-05T18:31:18.885Z,20.70
2023-05-05T18:34:40.958Z,20.50
2023-05-05T18:38:04.023Z,20.40
2023-05-05T18:41:26.094Z,20.40
2023-05-05T18:44:48.042Z,20.30
2023-05-05T18:48:10.001Z,20.10
2023-05-05T18:51:32.315Z,20.00
2023-05-05T18:54:54.318Z,19.90
2023-05-05T18:58:16.855Z,19.80
2023-05-05T19:01:39.057Z,19.70
2023-05-05T19:05:01.237Z,19.50
2023-05-05T19:08:23.244Z,19.40
2023-05-05T19:11:45.328Z,19.20
2023-05-05T19:15:08.455Z,19.10
2023-05-05T19:18:30.949Z,19.00
2023-05-05T19:21:53.156Z,18.80
2023-05-05T19:25:15.139Z,18.70
2023-05-05T19:28:37.102Z,18.60
2023-05-05T19:31:59.084Z,18.50
2023-05-05T19:35:21.277Z,18.40
2023-05-05T19:38:46.708Z,18.30
2023-05-05T19:42:09.795Z,18.20
2023-05-05T19:45:36.195Z,18.20
2023-05-05T19:48:58.375Z,18.10
2023-05-05T19:52:23.160Z,18.00
2023-05-05T19:55:49.044Z,18.00
2023-05-05T19:59:12.542Z,18.00
2023-05-05T20:02:37.040Z,17.90
2023-05-05T20:06:00.283Z,17.80
2023-05-05T20:09:22.985Z,17.70
2023-05-05T20:12:49.917Z,17.60
2023-05-05T20:16:15.475Z,17.60
2023-05-05T20:19:38.003Z,17.60
2023-05-05T20:23:01.050Z,17.50
2023-05-05T20:26:24.462Z,17.50
2023-05-05T20:30:11.022Z,17.50
2023-05-05T20:33:36.218Z,17.40
2023-05-05T20:36:59.622Z,17.40
2023-05-05T20:40:22.415Z,17.30
2023-05-05T20:43:49.628Z,17.30
2023-05-05T20:47:12.152Z,17.30
2023-05-05T20:50:39.347Z,17.20
2023-05-05T20:54:13.321Z,17.20
2023-05-05T20:57:37.537Z,17.20
2023-05-05T21:00:59.795Z,17.10
2023-05-05T21:04:25.870Z,17.10
2023-05-05T21:11:51.187Z,17.00
2023-05-05T21:15:14.838Z,16.90
2023-05-05T21:18:37.510Z,16.80
2023-05-05T21:22:02.261Z,16.80
2023-05-05T21:25:24.909Z,16.80
2023-05-05T21:28:47.046Z,16.70
2023-05-05T21:32:11.726Z,16.70
2023-05-05T21:35:33.704Z,16.70
2023-05-05T21:38:57.769Z,16.70
2023-05-05T21:42:21.025Z,16.70
2023-05-05T21:45:43.041Z,16.60
2023-05-05T21:49:15.297Z,16.60
2023-05-05T21:52:37.313Z,16.50
2023-05-05T21:55:59.390Z,16.40
2023-05-05T21:59:21.494Z,16.30
2023-05-05T22:02:45.559Z,16.30
2023-05-05T22:06:07.625Z,16.20
2023-05-05T22:09:29.628Z,16.20
2023-05-05T22:12:52.052Z,16.10
2023-05-05T22:16:17.638Z,16.10
2023-05-05T22:19:39.786Z,16.00
2023-05-05T22:23:01.733Z,15.90
2023-05-05T22:26:23.706Z,15.90
2023-05-05T22:29:46.700Z,15.90
2023-05-05T22:33:09.050Z,15.80
2023-05-05T22:36:31.566Z,15.80
2023-05-05T22:39:53.518Z,15.70
2023-05-05T22:43:15.614Z,15.60
2023-05-05T22:46:37.718Z,15.50
2023-05-05T22:50:00.372Z,15.50
2023-05-05T22:53:22.364Z,15.50
2023-05-05T22:56:44.370Z,15.40
2023-05-05T23:00:07.026Z,15.20
2023-05-05T23:03:28.966Z,15.10
2023-05-05T23:06:52.029Z,15.10
2023-05-05T23:10:14.122Z,15.20
2023-05-05T23:13:36.050Z,15.10
2023-05-05T23:16:58.244Z,15.00
2023-05-05T23:20:20.453Z,15.00
2023-05-05T23:23:42.435Z,15.00
2023-05-05T23:27:04.437Z,14.90
2023-05-05T23:30:26.389Z,14.80
2023-05-05T23:33:49.083Z,14.80
2023-05-05T23:37:12.686Z,14.80
2023-05-05T23:40:34.744Z,14.80
2023-05-05T23:43:57.272Z,14.70
2023-05-05T23:47:19.303Z,14.60
2023-05-05T23:50:41.401Z,14.60
2023-05-05T23:54:03.361Z,14.50
2023-05-05T23:57:25.337Z,14.30
